Time,TemperatureF,DewpointF,PressureIn,WindDirection,WindDirectionDegrees,WindSpeedMPH,WindSpeedGustMPH,Humidity,HourlyPrecipIn,Conditions,Clouds,dailyrainin,SoftwareType,DateUTC
2013-08-26 00:01:00,62.8,55.1,30.21,West,270,0.4,1.1,76,0.02,,,0.00,WUHU216HW,2013-08-26 04:01:00,
2013-08-26 00:06:00,62.3,55.3,30.21,West,270,0.7,0.7,78,0.04,,,0.02,WUHU216HW,2013-08-26 04:06:00,
2013-08-26 00:11:00,61.9,54.6,30.21,West,270,0.0,0.7,77,0.04,,,0.02,WUHU216HW,2013-08-26 04:11:00,
2013-08-26 00:16:00,61.7,54.5,30.21,West,270,0.0,0.0,77,0.04,,,0.02,WUHU216HW,2013-08-26 04:16:00,
2013-08-26 00:21:00,61.6,54.6,30.20,WNW,293,0.4,0.7,78,0.04,,,0.02,WUHU216HW,2013-08-26 04:21:00,
2013-08-26 00:26:00,61.6,54.6,30.20,WNW,293,0.0,0.7,78,0.04,,,0.02,WUHU216HW,2013-08-26 04:26:00,
2013-08-26 00:31:00,61.6,54.6,30.20,WNW,293,0.0,0.2,78,0.04,,,0.02,WUHU216HW,2013-08-26 04:31:00,
2013-08-26 00:36:00,61.6,54.3,30.20,WNW,293,0.0,0.0,77,0.04,,,0.02,WUHU216HW,2013-08-26 04:36:00,
2013-08-26 00:41:00,61.6,54.6,30.20,WNW,293,0.2,0.2,78,0.04,,,0.02,WUHU216HW,2013-08-26 04:41:00,
2013-08-26 00:46:00,61.4,54.1,30.20,WNW,293,0.0,0.2,77,0.04,,,0.02,WUHU216HW,2013-08-26 04:46:00,
2013-08-26 00:51:00,61.4,54.1,30.20,WNW,293,0.0,0.0,77,0.04,,,0.04,WUHU216HW,2013-08-26 04:51:00,
2013-08-26 00:56:00,61.4,54.1,30.20,WNW,293,0.4,0.4,77,0.04,,,0.04,WUHU216HW,2013-08-26 04:56:00,
2013-08-26 01:01:00,61.4,54.1,30.19,WNW,293,0.0,0.4,77,0.04,,,0.04,WUHU216HW,2013-08-26 05:01:00,
2013-08-26 01:06:00,61.2,54.0,30.19,WNW,293,0.0,0.0,77,0.02,,,0.04,WUHU216HW,2013-08-26 05:06:00,
2013-08-26 01:11:00,61.2,54.0,30.19,WNW,293,0.0,0.0,77,0.02,,,0.04,WUHU216HW,2013-08-26 05:11:00,
2013-08-26 01:16:00,61.0,54.2,30.18,SE,135,0.0,1.1,78,0.02,,,0.04,WUHU216HW,2013-08-26 05:16:00,
2013-08-26 01:21:00,60.8,54.4,30.18,SE,135,0.4,1.1,79,0.02,,,0.04,WUHU216HW,2013-08-26 05:21:00,
2013-08-26 01:26:00,60.8,54.4,30.18,SE,135,0.0,0.4,79,0.02,,,0.04,WUHU216HW,2013-08-26 05:26:00,
2013-08-26 01:31:00,60.8,54.4,30.18,SE,135,0.0,0.0,79,0.02,,,0.04,WUHU216HW,2013-08-26 05:31:00,
2013-08-26 01:36:00,60.8,54.4,30.18,SE,135,0.0,0.4,79,0.02,,,0.04,WUHU216HW,2013-08-26 05:36:00,
2013-08-26 01:41:00,60.8,54.7,30.17,SE,135,0.2,0.7,80,0.02,,,0.04,WUHU216HW,2013-08-26 05:41:00,
2013-08-26 01:46:00,60.8,54.7,30.17,SE,135,0.0,0.9,80,0.02,,,0.04,WUHU216HW,2013-08-26 05:46:00,
2013-08-26 01:51:00,60.8,54.7,30.17,SE,135,0.0,0.9,80,0.00,,,0.04,WUHU216HW,2013-08-26 05:51:00,
2013-08-26 01:56:00,60.7,54.2,30.17,SE,135,0.0,0.4,79,0.00,,,0.04,WUHU216HW,2013-08-26 05:56:00,
2013-08-26 02:01:00,60.8,54.7,30.17,SE,135,0.2,0.4,80,0.00,,,0.04,WUHU216HW,2013-08-26 06:01:00,
2013-08-26 02:06:00,60.7,54.5,30.17,SE,135,0.4,0.4,80,0.00,,,0.04,WUHU216HW,2013-08-26 06:06:00,
2013-08-26 02:11:00,60.5,54.4,30.16,SE,135,0.0,0.4,80,0.00,,,0.04,WUHU216HW,2013-08-26 06:11:00,
2013-08-26 02:16:00,60.5,54.4,30.16,SE,135,0.4,0.4,80,0.00,,,0.04,WUHU216HW,2013-08-26 06:16:00,
2013-08-26 02:21:00,60.5,54.7,30.16,SE,135,0.0,0.9,81,0.00,,,0.04,WUHU216HW,2013-08-26 06:21:00,
2013-08-26 02:26:00,60.5,54.7,30.16,SE,135,0.0,0.9,81,0.00,,,0.04,WUHU216HW,2013-08-26 06:26:00,
2013-08-26 02:31:00,60.5,54.7,30.16,ENE,68,0.0,0.7,81,0.00,,,0.04,WUHU216HW,2013-08-26 06:31:00,
2013-08-26 02:36:00,60.5,54.7,30.16,ENE,68,0.0,0.0,81,0.01,,,0.05,WUHU216HW,2013-08-26 06:36:00,
2013-08-26 02:41:00,60.5,54.7,30.16,ENE,68,0.0,0.0,81,0.01,,,0.05,WUHU216HW,2013-08-26 06:41:00,
2013-08-26 02:46:00,60.5,54.7,30.16,ENE,68,0.0,0.0,81,0.01,,,0.05,WUHU216HW,2013-08-26 06:46:00,
2013-08-26 02:51:00,60.5,54.4,30.16,ENE,68,0.0,0.0,80,0.01,,,0.05,WUHU216HW,2013-08-26 06:51:00,
2013-08-26 02:56:00,60.5,54.4,30.16,ENE,68,0.0,0.0,80,0.02,,,0.06,WUHU216HW,2013-08-26 06:56:00,
2013-08-26 03:01:00,60.5,54.4,30.16,ENE,68,0.0,0.0,80,0.02,,,0.06,WUHU216HW,2013-08-26 07:01:00,
2013-08-26 03:06:00,60.3,54.6,30.16,ENE,68,0.0,0.0,81,0.03,,,0.07,WUHU216HW,2013-08-26 07:06:00,
2013-08-26 03:11:00,60.3,54.2,30.16,ENE,68,0.0,0.0,80,0.03,,,0.07,WUHU216HW,2013-08-26 07:11:00,
2013-08-26 03:16:00,60.3,54.6,30.15,ENE,68,0.0,0.0,81,0.03,,,0.07,WUHU216HW,2013-08-26 07:16:00,
2013-08-26 03:21:00,60.3,54.2,30.15,ENE,68,0.0,0.0,80,0.03,,,0.07,WUHU216HW,2013-08-26 07:21:00,
2013-08-26 03:26:00,60.3,54.2,30.15,ENE,68,0.0,0.0,80,0.05,,,0.09,WUHU216HW,2013-08-26 07:26:00,
2013-08-26 03:31:00,60.3,54.6,30.15,ENE,68,0.0,0.0,81,0.05,,,0.09,WUHU216HW,2013-08-26 07:31:00,
2013-08-26 03:36:00,60.3,54.6,30.16,ENE,68,0.0,0.0,81,0.04,,,0.09,WUHU216HW,2013-08-26 07:36:00,
2013-08-26 03:41:00,60.3,54.2,30.15,ENE,68,0.0,0.7,80,0.04,,,0.09,WUHU216HW,2013-08-26 07:41:00,
2013-08-26 03:46:00,60.3,54.2,30.15,ESE,113,1.1,1.1,80,0.04,,,0.09,WUHU216HW,2013-08-26 07:46:00,
2013-08-26 03:51:00,60.1,54.4,30.15,ESE,113,0.0,1.1,81,0.05,,,0.11,WUHU216HW,2013-08-26 07:51:00,
2013-08-26 03:56:00,60.1,54.6,30.14,ESE,113,1.1,1.3,82,0.07,,,0.13,WUHU216HW,2013-08-26 07:56:00,
2013-08-26 04:01:00,59.9,54.8,30.13,SE,135,1.0,1.3,83,0.07,,,0.14,WUHU216HW,2013-08-26 08:01:00,
2013-08-26 04:06:00,59.8,54.6,30.13,SSE,158,0.7,1.3,83,0.07,,,0.14,WUHU216HW,2013-08-26 08:06:00,
2013-08-26 04:11:00,59.8,54.6,30.12,SSE,158,1.1,1.3,83,0.07,,,0.14,WUHU216HW,2013-08-26 08:11:00,
2013-08-26 04:16:00,59.6,54.5,30.12,SSE,158,0.7,1.3,83,0.07,,,0.14,WUHU216HW,2013-08-26 08:16:00,
2013-08-26 04:21:00,59.6,54.5,30.12,SSW,203,0.7,1.3,83,0.07,,,0.14,WUHU216HW,2013-08-26 08:21:00,
2013-08-26 04:26:00,59.6,54.7,30.12,SSW,203,1.0,1.1,84,0.05,,,0.14,WUHU216HW,2013-08-26 08:26:00,
2013-08-26 04:31:00,59.6,54.7,30.12,SSW,203,2.2,2.2,84,0.05,,,0.14,WUHU216HW,2013-08-26 08:31:00,
2013-08-26 04:36:00,59.6,54.7,30.11,South,191,1.9,2.2,84,0.05,,,0.14,WUHU216HW,2013-08-26 08:36:00,
2013-08-26 04:41:00,59.6,54.7,30.11,South,180,1.5,2.0,84,0.05,,,0.14,WUHU216HW,2013-08-26 08:41:00,
2013-08-26 04:46:00,59.6,54.7,30.11,SSW,193,1.5,1.8,84,0.05,,,0.14,WUHU216HW,2013-08-26 08:46:00,
2013-08-26 04:51:00,59.4,54.5,30.11,South,180,0.8,1.8,84,0.02,,,0.14,WUHU216HW,2013-08-26 08:51:00,
2013-08-26 04:56:00,59.4,54.5,30.10,WSW,248,1.3,1.3,84,0.01,,,0.14,WUHU216HW,2013-08-26 08:56:00,
2013-08-26 05:00:00,59.4,54.5,30.10,SW,225,0.0,1.3,84,0.00,,,0.14,WUHU216HW,2013-08-26 09:00:00,
2013-08-26 05:05:00,59.4,54.5,30.10,SW,225,0.0,1.1,84,0.00,,,0.14,WUHU216HW,2013-08-26 09:05:00,
2013-08-26 05:10:00,59.4,54.5,30.10,SW,225,0.0,0.0,84,0.00,,,0.14,WUHU216HW,2013-08-26 09:10:00,
2013-08-26 05:15:00,59.4,54.5,30.10,SW,225,0.0,0.0,84,0.00,,,0.14,WUHU216HW,2013-08-26 09:15:00,
2013-08-26 05:20:00,59.4,54.5,30.09,South,180,1.1,1.1,84,0.00,,,0.14,WUHU216HW,2013-08-26 09:20:00,
2013-08-26 05:25:00,59.6,54.7,30.09,South,180,1.1,1.1,84,0.00,,,0.14,WUHU216HW,2013-08-26 09:25:00,
2013-08-26 05:30:00,59.6,54.7,30.09,South,180,0.7,1.3,84,0.00,,,0.14,WUHU216HW,2013-08-26 09:30:00,
2013-08-26 05:35:00,59.4,54.5,30.09,South,180,0.0,1.3,84,0.00,,,0.14,WUHU216HW,2013-08-26 09:35:00,
2013-08-26 05:40:00,59.6,54.7,30.09,South,180,0.0,0.9,84,0.00,,,0.14,WUHU216HW,2013-08-26 09:40:00,
2013-08-26 05:45:00,59.6,54.7,30.09,SSW,203,0.0,0.9,84,0.00,,,0.14,WUHU216HW,2013-08-26 09:45:00,
2013-08-26 05:50:00,59.6,54.7,30.09,SSW,203,0.4,0.9,84,0.00,,,0.14,WUHU216HW,2013-08-26 09:50:00,
2013-08-26 05:55:00,59.6,54.7,30.09,SSW,203,0.0,0.9,84,0.00,,,0.14,WUHU216HW,2013-08-26 09:55:00,
2013-08-26 06:00:00,59.6,54.5,30.09,SSW,203,0.0,0.7,83,0.00,,,0.14,WUHU216HW,2013-08-26 10:00:00,
2013-08-26 06:05:00,59.8,54.6,30.09,SSW,203,0.0,0.0,83,0.00,,,0.14,WUHU216HW,2013-08-26 10:05:00,
2013-08-26 06:10:00,59.8,54.9,30.08,SSW,203,0.0,0.0,84,0.00,,,0.14,WUHU216HW,2013-08-26 10:10:00,
2013-08-26 06:15:00,59.8,54.6,30.09,SSW,203,0.0,0.0,83,0.00,,,0.14,WUHU216HW,2013-08-26 10:15:00,
2013-08-26 06:20:00,59.8,54.6,30.09,SSW,203,0.0,0.0,83,0.00,,,0.14,WUHU216HW,2013-08-26 10:20:00,
2013-08-26 06:25:00,59.8,54.6,30.08,SSW,203,0.0,0.0,83,0.00,,,0.14,WUHU216HW,2013-08-26 10:25:00,
2013-08-26 06:30:00,59.8,54.6,30.08,SSW,203,0.0,1.1,83,0.00,,,0.14,WUHU216HW,2013-08-26 10:30:00,
2013-08-26 06:35:00,59.8,54.6,30.09,SSW,203,0.0,1.1,83,0.00,,,0.14,WUHU216HW,2013-08-26 10:35:00,
2013-08-26 06:40:00,59.8,54.9,30.09,SSW,203,1.0,1.1,84,0.00,,,0.14,WUHU216HW,2013-08-26 10:40:00,
2013-08-26 06:45:00,59.6,54.7,30.08,SW,225,1.1,1.8,84,0.00,,,0.14,WUHU216HW,2013-08-26 10:45:00,
2013-08-26 06:50:00,59.6,54.7,30.08,South,180,1.5,2.0,84,0.00,,,0.14,WUHU216HW,2013-08-26 10:50:00,
2013-08-26 06:55:00,59.6,54.7,30.09,South,180,0.4,2.0,84,0.00,,,0.14,WUHU216HW,2013-08-26 10:55:00,
2013-08-26 07:00:00,59.8,54.9,30.09,South,180,0.0,1.1,84,0.00,,,0.14,WUHU216HW,2013-08-26 11:00:00,
2013-08-26 07:05:00,59.8,54.9,30.09,South,180,0.7,0.7,84,0.00,,,0.14,WUHU216HW,2013-08-26 11:05:00,
2013-08-26 07:10:00,59.8,54.9,30.08,South,180,0.4,0.9,84,0.00,,,0.14,WUHU216HW,2013-08-26 11:10:00,
2013-08-26 07:15:00,59.8,54.9,30.08,ENE,68,0.8,1.3,84,0.00,,,0.14,WUHU216HW,2013-08-26 11:15:00,
2013-08-26 07:20:00,59.8,54.9,30.09,NE,45,1.1,1.3,84,0.00,,,0.14,WUHU216HW,2013-08-26 11:20:00,
2013-08-26 07:25:00,59.8,54.6,30.09,North,0,0.4,1.1,83,0.00,,,0.14,WUHU216HW,2013-08-26 11:25:00,
2013-08-26 07:30:00,59.8,54.6,30.08,East,90,0.0,1.3,83,0.00,,,0.14,WUHU216HW,2013-08-26 11:30:00,
2013-08-26 07:35:00,59.8,54.6,30.08,East,90,0.6,1.3,83,0.00,,,0.14,WUHU216HW,2013-08-26 11:35:00,
2013-08-26 07:40:00,59.9,54.8,30.08,East,90,0.4,0.9,83,0.00,,,0.14,WUHU216HW,2013-08-26 11:40:00,
2013-08-26 07:45:00,60.1,55.3,30.08,SW,225,0.9,0.9,84,0.00,,,0.14,WUHU216HW,2013-08-26 11:45:00,
2013-08-26 07:50:00,60.1,55.3,30.08,SW,225,1.8,1.8,84,0.00,,,0.14,WUHU216HW,2013-08-26 11:50:00,
2013-08-26 07:55:00,60.1,55.3,30.08,SSW,203,1.8,1.8,84,0.00,,,0.14,WUHU216HW,2013-08-26 11:55:00,
2013-08-26 08:00:00,60.3,55.4,30.08,SSW,203,1.1,1.8,84,0.00,,,0.14,WUHU216HW,2013-08-26 12:00:00,
2013-08-26 08:05:00,60.5,55.6,30.08,WNW,293,0.8,1.3,84,0.00,,,0.14,WUHU216HW,2013-08-26 12:05:00,
2013-08-26 08:10:00,60.7,55.8,30.08,West,270,0.8,1.1,84,0.00,,,0.14,WUHU216HW,2013-08-26 12:10:00,
2013-08-26 08:15:00,60.8,55.7,30.07,South,173,1.7,2.2,83,0.00,,,0.14,WUHU216HW,2013-08-26 12:15:00,
2013-08-26 08:20:00,61.4,56.2,30.08,SW,225,1.3,2.2,83,0.00,,,0.14,WUHU216HW,2013-08-26 12:20:00,
2013-08-26 08:25:00,61.6,56.3,30.08,SW,225,0.6,1.8,83,0.00,,,0.14,WUHU216HW,2013-08-26 12:25:00,
2013-08-26 08:30:00,61.7,56.2,30.07,SSE,158,0.9,1.8,82,0.00,,,0.14,WUHU216HW,2013-08-26 12:30:00,
2013-08-26 08:35:00,62.3,56.3,30.07,NW,315,1.6,1.8,81,0.00,,,0.14,WUHU216HW,2013-08-26 12:35:00,
2013-08-26 08:40:00,62.5,56.2,30.07,SSE,158,0.7,2.0,80,0.00,,,0.14,WUHU216HW,2013-08-26 12:40:00,
2013-08-26 08:45:00,62.6,56.3,30.07,NW,315,1.6,2.0,80,0.00,,,0.14,WUHU216HW,2013-08-26 12:45:00,
2013-08-26 08:50:00,62.6,56.7,30.07,NNE,23,0.9,1.6,81,0.00,,,0.14,WUHU216HW,2013-08-26 12:50:00,
2013-08-26 08:55:00,62.5,56.9,30.06,NNE,23,0.4,1.3,82,0.00,,,0.14,WUHU216HW,2013-08-26 12:55:00,
2013-08-26 09:00:00,62.1,56.5,30.06,North,0,0.2,1.3,82,0.00,,,0.14,WUHU216HW,2013-08-26 13:00:00,
2013-08-26 09:05:00,61.9,56.3,30.06,North,0,0.0,0.9,82,0.00,,,0.14,WUHU216HW,2013-08-26 13:05:00,
2013-08-26 09:10:00,62.1,56.5,30.06,North,0,0.7,0.9,82,0.00,,,0.14,WUHU216HW,2013-08-26 13:10:00,
2013-08-26 09:15:00,62.3,56.7,30.06,ESE,113,0.4,1.8,82,0.00,,,0.14,WUHU216HW,2013-08-26 13:15:00,
2013-08-26 09:20:00,62.5,56.9,30.05,ESE,113,0.8,1.8,82,0.00,,,0.14,WUHU216HW,2013-08-26 13:20:00,
2013-08-26 09:25:00,63.0,57.1,30.06,WSW,248,0.7,2.7,81,0.00,,,0.14,WUHU216HW,2013-08-26 13:25:00,
2013-08-26 09:30:00,63.9,57.6,30.06,South,180,2.9,2.9,80,0.00,,,0.14,WUHU216HW,2013-08-26 13:30:00,
2013-08-26 09:35:00,64.6,58.3,30.05,SSE,158,1.1,2.9,80,0.00,,,0.14,WUHU216HW,2013-08-26 13:35:00,
2013-08-26 09:40:00,65.3,58.7,30.05,SSW,203,1.8,2.7,79,0.00,,,0.14,WUHU216HW,2013-08-26 13:40:00,
2013-08-26 09:45:00,65.9,58.9,30.05,South,180,2.0,2.2,78,0.00,,,0.14,WUHU216HW,2013-08-26 13:45:00,
2013-08-26 09:50:00,66.6,59.1,30.05,SSE,158,1.1,2.2,77,0.00,,,0.14,WUHU216HW,2013-08-26 13:50:00,
2013-08-26 09:55:00,67.0,59.5,30.05,SSE,158,1.8,2.0,77,0.00,,,0.14,WUHU216HW,2013-08-26 13:55:00,
2013-08-26 10:00:00,67.1,59.7,30.05,SSE,158,1.3,1.8,77,0.00,,,0.14,WUHU216HW,2013-08-26 14:00:00,
2013-08-26 10:05:00,67.3,59.9,30.06,WNW,293,0.9,1.8,77,0.00,,,0.14,WUHU216HW,2013-08-26 14:05:00,
2013-08-26 10:10:00,67.5,60.0,30.05,WNW,288,0.6,0.9,77,0.00,,,0.14,WUHU216HW,2013-08-26 14:10:00,
2013-08-26 10:15:00,67.7,59.9,30.05,SSW,203,1.6,2.7,76,0.00,,,0.14,WUHU216HW,2013-08-26 14:15:00,
2013-08-26 10:20:00,68.0,59.9,30.05,SSW,203,1.6,2.7,75,0.00,,,0.14,WUHU216HW,2013-08-26 14:20:00,
2013-08-26 10:25:00,68.2,60.0,30.05,South,180,3.4,4.7,75,0.00,,,0.14,WUHU216HW,2013-08-26 14:25:00,
2013-08-26 10:30:00,68.6,60.3,30.05,South,180,2.0,4.7,75,0.00,,,0.14,WUHU216HW,2013-08-26 14:30:00,
2013-08-26 10:35:00,68.8,60.1,30.05,SSW,203,2.7,2.7,74,0.00,,,0.14,WUHU216HW,2013-08-26 14:35:00,
2013-08-26 10:40:00,69.1,60.5,30.04,South,169,3.3,4.9,74,0.00,,,0.14,WUHU216HW,2013-08-26 14:40:00,
2013-08-26 10:45:00,69.5,60.8,30.05,SW,220,2.3,4.9,74,0.00,,,0.14,WUHU216HW,2013-08-26 14:45:00,
2013-08-26 10:50:00,69.5,60.8,30.05,South,180,1.8,3.6,74,0.00,,,0.14,WUHU216HW,2013-08-26 14:50:00,
2013-08-26 10:55:00,69.8,61.1,30.05,SSW,193,1.8,2.5,74,0.00,,,0.14,WUHU216HW,2013-08-26 14:55:00,
2013-08-26 11:00:00,70.0,60.9,30.05,SSE,158,2.5,5.1,73,0.00,,,0.14,WUHU216HW,2013-08-26 15:00:00,
2013-08-26 11:05:00,70.2,61.1,30.04,SSE,168,2.6,5.1,73,0.00,,,0.14,WUHU216HW,2013-08-26 15:05:00,
2013-08-26 11:10:00,70.4,60.8,30.04,SW,225,2.5,4.3,72,0.00,,,0.14,WUHU216HW,2013-08-26 15:10:00,
2013-08-26 11:15:00,70.6,61.0,30.05,SE,135,1.6,4.0,72,0.00,,,0.14,WUHU216HW,2013-08-26 15:15:00,
2013-08-26 11:20:00,70.7,60.8,30.04,SW,225,2.9,2.9,71,0.00,,,0.14,WUHU216HW,2013-08-26 15:20:00,
2013-08-26 11:25:00,70.9,61.4,30.04,South,180,3.8,3.8,72,0.00,,,0.14,WUHU216HW,2013-08-26 15:25:00,
2013-08-26 11:30:00,71.5,61.9,30.04,WNW,293,1.1,3.8,72,0.00,,,0.14,WUHU216HW,2013-08-26 15:30:00,
2013-08-26 11:35:00,72.0,62.9,30.03,SSE,158,1.3,2.0,73,0.00,,,0.14,WUHU216HW,2013-08-26 15:35:00,
2013-08-26 11:40:00,72.4,62.8,30.03,South,180,1.6,2.0,72,0.00,,,0.14,WUHU216HW,2013-08-26 15:40:00,
2013-08-26 11:45:00,72.7,63.2,30.02,SSW,203,3.1,4.3,72,0.00,,,0.14,WUHU216HW,2013-08-26 15:45:00,
2013-08-26 11:50:00,72.7,63.2,30.02,WSW,248,2.7,4.3,72,0.00,,,0.14,WUHU216HW,2013-08-26 15:50:00,
2013-08-26 11:55:00,72.9,63.4,30.02,SW,225,2.3,4.7,72,0.00,,,0.14,WUHU216HW,2013-08-26 15:55:00,
2013-08-26 12:00:00,72.9,63.0,30.02,SSW,209,3.0,4.7,71,0.00,,,0.14,WUHU216HW,2013-08-26 16:00:00,
2013-08-26 12:05:00,72.7,62.8,30.02,SW,225,1.6,3.8,71,0.00,,,0.14,WUHU216HW,2013-08-26 16:05:00,
2013-08-26 12:10:00,72.7,62.8,30.02,SSW,203,0.9,2.0,71,0.00,,,0.14,WUHU216HW,2013-08-26 16:10:00,
2013-08-26 12:15:00,72.7,62.8,30.03,South,180,0.4,2.0,71,0.00,,,0.14,WUHU216HW,2013-08-26 16:15:00,
2013-08-26 12:20:00,72.2,62.6,30.03,SSE,158,1.6,2.0,72,0.00,,,0.14,WUHU216HW,2013-08-26 16:20:00,
2013-08-26 12:25:00,71.6,62.1,30.03,SSE,158,1.3,1.6,72,0.00,,,0.14,WUHU216HW,2013-08-26 16:25:00,
2013-08-26 12:30:00,71.3,61.7,30.03,South,180,1.1,1.6,72,0.00,,,0.14,WUHU216HW,2013-08-26 16:30:00,
2013-08-26 12:35:00,71.1,61.6,30.02,SW,218,3.1,3.4,72,0.00,,,0.14,WUHU216HW,2013-08-26 16:35:00,
2013-08-26 12:40:00,71.5,62.4,30.02,SSW,203,0.9,3.4,73,0.00,,,0.14,WUHU216HW,2013-08-26 16:40:00,
2013-08-26 12:45:00,72.4,63.3,30.02,West,270,2.5,2.7,73,0.00,,,0.14,WUHU216HW,2013-08-26 16:45:00,
2013-08-26 12:50:00,72.4,62.8,30.02,SW,225,2.0,2.7,72,0.00,,,0.14,WUHU216HW,2013-08-26 16:50:00,
2013-08-26 12:55:00,72.9,63.4,30.02,SW,225,2.5,2.5,72,0.00,,,0.14,WUHU216HW,2013-08-26 16:55:00,
2013-08-26 13:00:00,73.1,63.5,30.02,South,180,0.9,2.5,72,0.00,,,0.14,WUHU216HW,2013-08-26 17:00:00,
2013-08-26 13:05:00,72.7,63.2,30.02,SW,219,0.8,2.0,72,0.00,,,0.14,WUHU216HW,2013-08-26 17:05:00,
2013-08-26 13:10:00,72.4,62.8,30.01,WSW,248,0.4,1.1,72,0.00,,,0.14,WUHU216HW,2013-08-26 17:10:00,
2013-08-26 13:15:00,72.4,63.3,30.01,SSE,158,1.1,1.1,73,0.00,,,0.14,WUHU216HW,2013-08-26 17:15:00,
2013-08-26 13:20:00,72.5,63.5,30.01,North,0,0.4,1.1,73,0.00,,,0.14,WUHU216HW,2013-08-26 17:20:00,
2013-08-26 13:25:00,72.7,63.6,30.01,West,270,0.2,0.4,73,0.00,,,0.14,WUHU216HW,2013-08-26 17:25:00,
2013-08-26 13:30:00,73.4,64.4,30.01,NE,45,0.4,1.6,73,0.00,,,0.14,WUHU216HW,2013-08-26 17:30:00,
2013-08-26 13:35:00,74.0,64.1,30.00,North,0,0.9,1.8,71,0.00,,,0.14,WUHU216HW,2013-08-26 17:35:00,
2013-08-26 13:40:00,74.5,64.5,30.00,SSW,203,0.7,1.8,71,0.00,,,0.14,WUHU216HW,2013-08-26 17:40:00,
2013-08-26 13:45:00,75.1,65.1,30.00,SSW,203,0.0,1.8,71,0.00,,,0.14,WUHU216HW,2013-08-26 17:45:00,
2013-08-26 13:50:00,75.2,65.2,30.00,SSW,203,2.0,2.0,71,0.00,,,0.14,WUHU216HW,2013-08-26 17:50:00,
2013-08-26 13:55:00,75.1,65.1,30.00,SSE,166,1.6,2.0,71,0.00,,,0.14,WUHU216HW,2013-08-26 17:55:00,
2013-08-26 14:00:00,74.3,64.4,30.00,South,183,0.6,2.0,71,0.00,,,0.14,WUHU216HW,2013-08-26 18:00:00,
2013-08-26 14:05:00,74.0,64.5,30.00,WSW,248,1.8,1.8,72,0.00,,,0.14,WUHU216HW,2013-08-26 18:05:00,
2013-08-26 14:10:00,73.8,64.3,29.99,SSE,158,0.2,1.8,72,0.00,,,0.14,WUHU216HW,2013-08-26 18:10:00,
2013-08-26 14:15:00,73.4,63.9,29.99,WSW,248,0.9,0.9,72,0.00,,,0.14,WUHU216HW,2013-08-26 18:15:00,
2013-08-26 14:20:00,73.3,63.7,29.99,SE,135,0.7,1.1,72,0.00,,,0.14,WUHU216HW,2013-08-26 18:20:00,
2013-08-26 14:25:00,73.1,64.0,29.99,West,270,1.1,2.2,73,0.00,,,0.14,WUHU216HW,2013-08-26 18:25:00,
2013-08-26 14:30:00,72.9,63.8,29.99,NW,315,0.9,2.2,73,0.00,,,0.14,WUHU216HW,2013-08-26 18:30:00,
2013-08-26 14:35:00,73.1,64.0,29.99,ESE,121,2.5,3.4,73,0.00,,,0.14,WUHU216HW,2013-08-26 18:35:00,
2013-08-26 14:39:00,73.4,64.4,29.99,NW,315,2.9,3.4,73,0.00,,,0.14,WUHU216HW,2013-08-26 18:39:00,
2013-08-26 14:44:00,74.0,64.5,29.99,NW,315,1.3,3.4,72,0.00,,,0.14,WUHU216HW,2013-08-26 18:44:00,
2013-08-26 14:49:00,74.3,64.4,29.98,SSW,203,1.3,2.9,71,0.00,,,0.14,WUHU216HW,2013-08-26 18:49:00,
2013-08-26 14:54:00,74.5,64.9,29.98,South,180,1.3,1.8,72,0.00,,,0.14,WUHU216HW,2013-08-26 18:54:00,
2013-08-26 14:59:00,74.3,64.4,29.98,South,174,2.3,4.7,71,0.00,,,0.14,WUHU216HW,2013-08-26 18:59:00,
2013-08-26 15:04:00,74.2,64.2,29.98,ESE,113,0.9,4.7,71,0.00,,,0.14,WUHU216HW,2013-08-26 19:04:00,
2013-08-26 15:09:00,74.0,64.1,29.98,South,180,2.0,2.0,71,0.00,,,0.14,WUHU216HW,2013-08-26 19:09:00,
2013-08-26 15:14:00,73.8,64.3,29.98,South,180,2.3,2.7,72,0.00,,,0.14,WUHU216HW,2013-08-26 19:14:00,
2013-08-26 15:19:00,73.8,64.3,29.98,SSE,158,0.7,2.7,72,0.00,,,0.14,WUHU216HW,2013-08-26 19:19:00,
2013-08-26 15:24:00,73.8,64.3,29.98,SE,135,0.2,1.1,72,0.00,,,0.14,WUHU216HW,2013-08-26 19:24:00,
2013-08-26 15:29:00,73.8,64.6,29.98,SE,135,0.2,1.1,73,0.00,,,0.14,WUHU216HW,2013-08-26 19:29:00,
2013-08-26 15:34:00,73.8,64.6,29.97,WSW,248,0.0,0.9,73,0.00,,,0.14,WUHU216HW,2013-08-26 19:34:00,
2013-08-26 15:39:00,74.0,64.8,29.97,SW,225,0.6,0.9,73,0.00,,,0.14,WUHU216HW,2013-08-26 19:39:00,
2013-08-26 15:44:00,74.5,65.4,29.97,SW,225,0.4,0.9,73,0.00,,,0.14,WUHU216HW,2013-08-26 19:44:00,
2013-08-26 15:49:00,74.5,64.5,29.97,SSW,203,0.7,0.7,71,0.00,,,0.14,WUHU216HW,2013-08-26 19:49:00,
2013-08-26 15:54:00,74.5,64.9,29.97,SW,225,1.1,1.1,72,0.00,,,0.14,WUHU216HW,2013-08-26 19:54:00,
2013-08-26 15:59:00,74.2,64.6,29.97,South,180,0.2,1.1,72,0.00,,,0.14,WUHU216HW,2013-08-26 19:59:00,
2013-08-26 16:04:00,74.2,64.6,29.97,South,180,0.0,0.9,72,0.00,,,0.14,WUHU216HW,2013-08-26 20:04:00,
2013-08-26 16:09:00,74.2,64.6,29.96,South,180,0.0,0.0,72,0.00,,,0.14,WUHU216HW,2013-08-26 20:09:00,
2013-08-26 16:14:00,74.2,65.0,29.96,South,180,0.0,0.0,73,0.00,,,0.14,WUHU216HW,2013-08-26 20:14:00,
2013-08-26 16:19:00,74.0,64.8,29.96,South,180,0.0,0.4,73,0.00,,,0.14,WUHU216HW,2013-08-26 20:19:00,
2013-08-26 16:24:00,74.0,64.8,29.97,South,180,0.0,0.4,73,0.00,,,0.14,WUHU216HW,2013-08-26 20:24:00,
2013-08-26 16:29:00,73.6,64.4,29.96,South,180,0.0,0.0,73,0.00,,,0.14,WUHU216HW,2013-08-26 20:29:00,
2013-08-26 16:34:00,73.4,64.7,29.96,South,180,0.0,0.0,74,0.00,,,0.14,WUHU216HW,2013-08-26 20:34:00,
2013-08-26 16:39:00,73.4,64.7,29.96,South,180,0.0,0.0,74,0.00,,,0.14,WUHU216HW,2013-08-26 20:39:00,
2013-08-26 16:44:00,73.1,64.4,29.96,South,180,0.4,0.4,74,0.00,,,0.14,WUHU216HW,2013-08-26 20:44:00,
2013-08-26 16:49:00,73.1,64.7,29.96,South,180,0.0,0.4,75,0.00,,,0.14,WUHU216HW,2013-08-26 20:49:00,
2013-08-26 16:54:00,73.1,64.7,29.96,South,180,0.0,0.0,75,0.00,,,0.14,WUHU216HW,2013-08-26 20:54:00,
2013-08-26 16:59:00,72.9,64.2,29.96,SSE,150,1.0,1.3,74,0.00,,,0.14,WUHU216HW,2013-08-26 20:59:00,
2013-08-26 17:04:00,72.7,64.0,29.96,SE,135,0.4,1.3,74,0.00,,,0.14,WUHU216HW,2013-08-26 21:04:00,
2013-08-26 17:09:00,72.5,63.8,29.96,SE,135,0.0,0.9,74,0.00,,,0.14,WUHU216HW,2013-08-26 21:09:00,
2013-08-26 17:14:00,72.5,64.2,29.96,SE,135,0.0,0.0,75,0.00,,,0.14,WUHU216HW,2013-08-26 21:14:00,
2013-08-26 17:19:00,72.4,64.0,29.96,SE,135,0.0,0.0,75,0.00,,,0.14,WUHU216HW,2013-08-26 21:19:00,
2013-08-26 17:24:00,72.4,64.0,29.96,SE,135,0.0,0.0,75,0.00,,,0.14,WUHU216HW,2013-08-26 21:24:00,
2013-08-26 17:29:00,72.4,64.0,29.96,SE,135,0.0,0.0,75,0.00,,,0.14,WUHU216HW,2013-08-26 21:29:00,
2013-08-26 17:34:00,72.4,64.0,29.96,SW,225,1.6,1.6,75,0.00,,,0.14,WUHU216HW,2013-08-26 21:34:00,
2013-08-26 17:39:00,72.2,63.5,29.96,SSW,203,1.3,2.2,74,0.00,,,0.14,WUHU216HW,2013-08-26 21:39:00,
2013-08-26 17:44:00,71.8,63.1,29.96,SSW,203,1.2,2.2,74,0.00,,,0.14,WUHU216HW,2013-08-26 21:44:00,
2013-08-26 17:49:00,71.8,63.1,29.96,SSW,203,1.1,2.0,74,0.00,,,0.14,WUHU216HW,2013-08-26 21:49:00,
2013-08-26 17:54:00,71.8,63.1,29.95,SSE,158,0.3,2.0,74,0.00,,,0.14,WUHU216HW,2013-08-26 21:54:00,
2013-08-26 17:59:00,72.0,63.3,29.95,West,270,0.2,1.8,74,0.00,,,0.14,WUHU216HW,2013-08-26 21:59:00,
2013-08-26 18:04:00,72.0,63.3,29.95,WSW,248,0.4,0.9,74,0.00,,,0.14,WUHU216HW,2013-08-26 22:04:00,
2013-08-26 18:09:00,72.0,63.3,29.96,WSW,248,0.4,0.7,74,0.00,,,0.14,WUHU216HW,2013-08-26 22:09:00,
2013-08-26 18:14:00,71.8,63.1,29.95,WSW,248,0.0,0.4,74,0.00,,,0.14,WUHU216HW,2013-08-26 22:14:00,
2013-08-26 18:19:00,71.6,63.3,29.95,SSW,203,1.1,1.1,75,0.00,,,0.14,WUHU216HW,2013-08-26 22:19:00,
2013-08-26 18:24:00,71.6,63.3,29.95,North,0,0.0,1.1,75,0.00,,,0.14,WUHU216HW,2013-08-26 22:24:00,
2013-08-26 18:29:00,71.6,63.3,29.95,SSW,203,0.4,1.1,75,0.00,,,0.14,WUHU216HW,2013-08-26 22:29:00,
2013-08-26 18:34:00,71.5,63.1,29.95,South,180,0.7,0.7,75,0.00,,,0.14,WUHU216HW,2013-08-26 22:34:00,
2013-08-26 18:39:00,71.3,62.9,29.95,North,0,0.0,0.7,75,0.00,,,0.14,WUHU216HW,2013-08-26 22:39:00,
2013-08-26 18:44:00,71.3,62.9,29.95,North,0,0.0,0.0,75,0.00,,,0.14,WUHU216HW,2013-08-26 22:44:00,
2013-08-26 18:49:00,71.3,62.9,29.95,North,0,0.0,0.0,75,0.00,,,0.14,WUHU216HW,2013-08-26 22:49:00,
2013-08-26 18:54:00,71.3,62.9,29.95,North,0,0.0,0.0,75,0.00,,,0.14,WUHU216HW,2013-08-26 22:54:00,
2013-08-26 18:59:00,71.1,63.1,29.95,North,0,0.0,0.0,76,0.00,,,0.14,WUHU216HW,2013-08-26 22:59:00,
2013-08-26 19:04:00,70.9,62.9,29.95,North,0,0.0,0.0,76,0.00,,,0.14,WUHU216HW,2013-08-26 23:04:00,
2013-08-26 19:09:00,70.7,62.7,29.95,North,0,0.0,0.0,76,0.00,,,0.14,WUHU216HW,2013-08-26 23:09:00,
2013-08-26 19:14:00,70.6,62.6,29.95,North,0,0.0,0.0,76,0.00,,,0.14,WUHU216HW,2013-08-26 23:14:00,
2013-08-26 19:19:00,70.6,62.6,29.95,North,0,0.0,0.0,76,0.00,,,0.14,WUHU216HW,2013-08-26 23:19:00,
2013-08-26 19:24:00,70.6,62.9,29.95,North,0,0.0,0.0,77,0.00,,,0.14,WUHU216HW,2013-08-26 23:24:00,
2013-08-26 19:29:00,70.6,62.9,29.95,North,0,0.0,0.0,77,0.00,,,0.14,WUHU216HW,2013-08-26 23:29:00,
2013-08-26 19:34:00,70.4,62.7,29.95,North,0,0.0,0.0,77,0.00,,,0.14,WUHU216HW,2013-08-26 23:34:00,
2013-08-26 19:39:00,70.4,62.7,29.95,North,0,0.0,0.0,77,0.00,,,0.14,WUHU216HW,2013-08-26 23:39:00,
2013-08-26 19:44:00,70.2,62.6,29.95,North,0,0.0,0.0,77,0.00,,,0.14,WUHU216HW,2013-08-26 23:44:00,
2013-08-26 19:49:00,70.2,62.6,29.95,North,0,0.0,0.0,77,0.00,,,0.14,WUHU216HW,2013-08-26 23:49:00,
2013-08-26 19:54:00,70.2,62.6,29.95,WSW,245,2.3,2.9,77,0.00,,,0.14,WUHU216HW,2013-08-26 23:54:00,
2013-08-26 19:59:00,70.0,62.4,29.95,SSW,203,3.1,3.1,77,0.00,,,0.14,WUHU216HW,2013-08-26 23:59:00,
2013-08-26 20:04:00,70.0,62.4,29.95,South,180,1.6,3.1,77,0.00,,,0.14,WUHU216HW,2013-08-27 00:04:00,
2013-08-26 20:09:00,70.0,62.4,29.94,SSW,203,0.4,3.1,77,0.00,,,0.14,WUHU216HW,2013-08-27 00:09:00,
2013-08-26 20:14:00,69.8,62.2,29.95,SSW,203,1.8,1.8,77,0.00,,,0.14,WUHU216HW,2013-08-27 00:14:00,
2013-08-26 20:19:00,69.8,62.2,29.95,South,180,0.4,1.8,77,0.00,,,0.14,WUHU216HW,2013-08-27 00:19:00,
2013-08-26 20:24:00,69.8,62.2,29.95,SW,225,0.7,1.8,77,0.00,,,0.14,WUHU216HW,2013-08-27 00:24:00,
2013-08-26 20:29:00,69.7,62.5,29.95,SW,225,0.7,0.7,78,0.00,,,0.14,WUHU216HW,2013-08-27 00:29:00,
2013-08-26 20:34:00,69.5,62.3,29.95,North,0,0.0,0.7,78,0.00,,,0.14,WUHU216HW,2013-08-27 00:34:00,
2013-08-26 20:39:00,69.7,62.5,29.95,North,0,0.0,0.0,78,0.00,,,0.14,WUHU216HW,2013-08-27 00:39:00,
2013-08-26 20:44:00,69.7,62.1,29.95,North,0,0.0,0.0,77,0.00,,,0.14,WUHU216HW,2013-08-27 00:44:00,
2013-08-26 20:49:00,69.7,62.1,29.95,North,0,0.0,0.0,77,0.00,,,0.14,WUHU216HW,2013-08-27 00:49:00,
2013-08-26 20:54:00,69.5,61.9,29.95,North,0,0.0,0.0,77,0.00,,,0.14,WUHU216HW,2013-08-27 00:54:00,
2013-08-26 20:59:00,69.5,61.9,29.95,North,0,0.0,0.0,77,0.00,,,0.14,WUHU216HW,2013-08-27 00:59:00,
2013-08-26 21:04:00,69.3,61.7,29.95,North,0,0.0,0.0,77,0.00,,,0.14,WUHU216HW,2013-08-27 01:04:00,
2013-08-26 21:09:00,69.1,61.9,29.95,North,0,0.0,0.0,78,0.00,,,0.14,WUHU216HW,2013-08-27 01:09:00,
2013-08-26 21:14:00,69.1,61.9,29.95,North,0,0.0,0.0,78,0.00,,,0.14,WUHU216HW,2013-08-27 01:14:00,
2013-08-26 21:19:00,69.1,61.9,29.95,North,0,0.0,0.0,78,0.00,,,0.14,WUHU216HW,2013-08-27 01:19:00,
2013-08-26 21:24:00,69.1,61.9,29.96,North,0,0.0,0.0,78,0.00,,,0.14,WUHU216HW,2013-08-27 01:24:00,
2013-08-26 21:29:00,69.1,61.9,29.96,North,0,0.0,0.0,78,0.00,,,0.14,WUHU216HW,2013-08-27 01:29:00,
2013-08-26 21:34:00,69.1,61.9,29.96,North,0,0.0,0.0,78,0.00,,,0.14,WUHU216HW,2013-08-27 01:34:00,
2013-08-26 21:39:00,69.1,61.9,29.96,North,0,0.0,0.0,78,0.00,,,0.14,WUHU216HW,2013-08-27 01:39:00,
2013-08-26 21:44:00,68.9,61.8,29.95,North,0,0.0,0.0,78,0.00,,,0.14,WUHU216HW,2013-08-27 01:44:00,
2013-08-26 21:49:00,68.9,61.8,29.95,West,270,0.4,0.7,78,0.00,,,0.14,WUHU216HW,2013-08-27 01:49:00,
2013-08-26 21:54:00,68.9,61.8,29.95,SW,225,0.0,0.9,78,0.00,,,0.14,WUHU216HW,2013-08-27 01:54:00,
2013-08-26 21:59:00,68.9,61.8,29.95,SSW,203,0.9,0.9,78,0.00,,,0.14,WUHU216HW,2013-08-27 01:59:00,
2013-08-26 22:04:00,68.8,62.0,29.95,SSW,203,0.9,0.9,79,0.00,,,0.14,WUHU216HW,2013-08-27 02:04:00,
2013-08-26 22:09:00,68.8,61.7,29.95,SSW,203,0.7,0.9,78,0.00,,,0.14,WUHU216HW,2013-08-27 02:09:00,
2013-08-26 22:14:00,68.8,61.7,29.95,SSW,203,0.0,0.9,78,0.00,,,0.14,WUHU216HW,2013-08-27 02:14:00,
2013-08-26 22:19:00,68.6,61.8,29.95,SSW,203,0.8,1.3,79,0.00,,,0.14,WUHU216HW,2013-08-27 02:19:00,
2013-08-26 22:24:00,68.6,61.8,29.95,North,0,0.0,1.3,79,0.00,,,0.14,WUHU216HW,2013-08-27 02:24:00,
2013-08-26 22:29:00,68.8,61.7,29.95,North,0,0.0,0.4,78,0.00,,,0.14,WUHU216HW,2013-08-27 02:29:00,
2013-08-26 22:34:00,68.8,61.7,29.95,North,0,0.0,0.0,78,0.00,,,0.14,WUHU216HW,2013-08-27 02:34:00,
2013-08-26 22:39:00,68.8,61.7,29.95,North,0,0.0,0.0,78,0.00,,,0.14,WUHU216HW,2013-08-27 02:39:00,
2013-08-26 22:44:00,68.8,62.0,29.95,North,0,0.0,0.0,79,0.00,,,0.14,WUHU216HW,2013-08-27 02:44:00,
2013-08-26 22:49:00,68.4,61.7,29.95,North,0,0.0,0.0,79,0.00,,,0.14,WUHU216HW,2013-08-27 02:49:00,
2013-08-26 22:54:00,68.2,61.6,29.95,North,0,0.0,0.0,79,0.00,,,0.14,WUHU216HW,2013-08-27 02:54:00,
2013-08-26 22:59:00,68.2,61.6,29.95,North,0,0.0,0.0,79,0.00,,,0.14,WUHU216HW,2013-08-27 02:59:00,
2013-08-26 23:04:00,68.2,61.6,29.94,North,0,0.0,0.0,79,0.00,,,0.14,WUHU216HW,2013-08-27 03:04:00,
2013-08-26 23:09:00,68.0,61.4,29.94,North,0,0.0,0.0,79,0.00,,,0.14,WUHU216HW,2013-08-27 03:09:00,
2013-08-26 23:14:00,68.0,61.4,29.94,North,0,0.0,0.0,79,0.00,,,0.14,WUHU216HW,2013-08-27 03:14:00,
2013-08-26 23:19:00,68.0,61.4,29.94,North,0,0.0,0.0,79,0.00,,,0.14,WUHU216HW,2013-08-27 03:19:00,
2013-08-26 23:24:00,67.9,61.2,29.94,North,0,0.0,0.0,79,0.00,,,0.14,WUHU216HW,2013-08-27 03:24:00,
2013-08-26 23:29:00,67.9,61.2,29.94,North,0,0.0,0.0,79,0.00,,,0.14,WUHU216HW,2013-08-27 03:29:00,
2013-08-26 23:34:00,67.7,61.4,29.94,North,0,0.0,0.0,80,0.00,,,0.14,WUHU216HW,2013-08-27 03:34:00,
2013-08-26 23:39:00,67.7,61.0,29.94,SSW,203,0.0,0.0,79,0.00,,,0.14,WUHU216HW,2013-08-27 03:39:00,
2013-08-26 23:44:00,67.7,61.4,29.94,SSW,203,0.0,0.0,80,0.00,,,0.14,WUHU216HW,2013-08-27 03:44:00,
2013-08-26 23:49:00,67.7,61.0,29.94,SSW,203,0.0,0.0,79,0.00,,,0.14,WUHU216HW,2013-08-27 03:49:00,
2013-08-26 23:54:00,67.5,61.2,29.94,SSW,203,0.0,0.0,80,0.00,,,0.14,WUHU216HW,2013-08-27 03:54:00,
2013-08-26 23:59:00,67.5,61.2,29.95,SSW,203,0.4,0.7,80,0.00,,,0.14,WUHU216HW,2013-08-27 03:59:00,